Time;durP1;ratioP1;P1;durP2;ratioP2;P2;SDS_P1;SDS_P2;PMS_P1;PMS_P2;Temp;Humidity;BMP_temperature;BMP_pressure;BME280_temperature;BME280_humidity;BME280_pressure;Samples;Min_cycle;Max_cycle;Signal;HPM_P1;HPM_P2
2022/01/03 00:01:35;;;;;;;47.00;28.55;;;;;;;;;;5124231;27;20019;-46
2022/01/03 00:04:00;;;;;;;25.13;20.67;;;;;;;;;;5124742;27;20066;-51
2022/01/03 00:06:26;;;;;;;21.75;17.63;;;;;;;;;;5125644;27;20134;-45
2022/01/03 00:08:51;;;;;;;45.30;24.73;;;;;;;;;;5127464;27;20102;-45
2022/01/03 00:11:17;;;;;;;23.30;16.75;;;;;;;;;;5126763;27;20482;-48
2022/01/03 00:13:44;;;;;;;16.60;14.82;;;;;;;;;;5127523;27;20385;-48
2022/01/03 00:16:09;;;;;;;15.35;13.82;;;;;;;;;;5126165;27;20068;-48
2022/01/03 00:18:34;;;;;;;15.80;14.15;;;;;;;;;;5127671;27;20111;-49
2022/01/03 00:21:00;;;;;;;15.02;12.18;;;;;;;;;;5127314;28;20750;-48
2022/01/03 00:23:27;;;;;;;12.57;11.27;;;;;;;;;;5127067;28;20485;-50
2022/01/03 00:25:57;;;;;;;14.82;11.25;;;;;;;;;;5127771;28;20043;-50
2022/01/03 00:28:23;;;;;;;22.17;15.90;;;;;;;;;;5125600;28;20019;-49
2022/01/03 00:30:55;;;;;;;16.92;15.05;;;;;;;;;;5127035;28;20034;-47
2022/01/03 00:33:21;;;;;;;18.45;15.40;;;;;;;;;;5125650;28;20106;-50
2022/01/03 00:35:50;;;;;;;15.48;14.05;;;;;;;;;;5109022;28;20529;-48
2022/01/03 00:38:17;;;;;;;22.15;16.83;;;;;;;;;;5127275;28;20047;-49
2022/01/03 00:40:43;;;;;;;14.35;11.57;;;;;;;;;;5127853;27;20050;-51
2022/01/03 00:43:08;;;;;;;13.82;11.57;;;;;;;;;;5131751;27;20367;-49
2022/01/03 00:45:34;;;;;;;22.65;19.70;;;;;;;;;;5113309;27;20050;-50
2022/01/03 00:47:59;;;;;;;27.90;16.88;;;;;;;;;;5131670;27;20019;-49
2022/01/03 00:50:24;;;;;;;19.08;15.55;;;;;;;;;;5130777;27;20397;-49
2022/01/03 00:52:50;;;;;;;18.33;11.90;;;;;;;;;;5128651;27;20693;-52
2022/01/03 00:55:16;;;;;;;12.65;11.32;;;;;;;;;;5131097;27;20031;-48
2022/01/03 00:58:02;;;;;;;15.32;11.70;;;;;;;;;;5130158;27;20042;-51
2022/01/03 01:00:30;;;;;;;14.77;11.73;;;;;;;;;;5128157;27;20506;-51
2022/01/03 01:03:12;;;;;;;18.65;12.40;;;;;;;;;;5131206;27;20019;-52
2022/01/03 01:05:42;;;;;;;14.68;13.10;;;;;;;;;;5129795;27;20030;-51
2022/01/03 01:08:08;;;;;;;19.30;13.07;;;;;;;;;;5130400;27;20038;-50
2022/01/03 01:10:35;;;;;;;24.15;14.77;;;;;;;;;;5129056;27;20020;-48
2022/01/03 01:13:01;;;;;;;19.05;16.45;;;;;;;;;;5130445;27;20076;-46
2022/01/03 01:15:27;;;;;;;18.90;16.98;;;;;;;;;;5130248;27;20244;-49
2022/01/03 01:17:53;;;;;;;31.98;23.27;;;;;;;;;;5130463;27;20039;-47
2022/01/03 01:20:20;;;;;;;28.27;21.38;;;;;;;;;;5130144;27;20078;-46
2022/01/03 01:22:45;;;;;;;20.55;18.35;;;;;;;;;;5130899;27;20021;-52
2022/01/03 01:25:25;;;;;;;26.90;17.35;;;;;;;;;;5130623;27;20813;-47
2022/01/03 01:27:53;;;;;;;25.27;16.88;;;;;;;;;;5129448;27;20029;-51
2022/01/03 01:30:20;;;;;;;17.67;14.75;;;;;;;;;;5128931;27;20648;-48
2022/01/03 01:33:15;;;;;;;23.05;15.68;;;;;;;;;;5129275;27;20038;-46
2022/01/03 01:35:53;;;;;;;21.30;19.05;;;;;;;;;;5107671;27;20027;-49
2022/01/03 01:38:22;;;;;;;19.77;11.60;;;;;;;;;;5129503;27;20023;-49
2022/01/03 01:40:54;;;;;;;17.52;12.75;;;;;;;;;;5129238;27;20019;-49
2022/01/03 01:43:25;;;;;;;12.95;11.65;;;;;;;;;;5127801;27;20023;-53
2022/01/03 01:45:51;;;;;;;16.27;11.75;;;;;;;;;;5129888;27;20103;-46
2022/01/03 01:48:17;;;;;;;14.90;10.43;;;;;;;;;;5130593;27;20058;-47
2022/01/03 01:50:48;;;;;;;13.43;9.60;;;;;;;;;;5129376;27;20084;-46
2022/01/03 01:53:19;;;;;;;10.38;9.30;;;;;;;;;;5126237;27;20505;-46
2022/01/03 01:55:46;;;;;;;13.73;12.35;;;;;;;;;;5128572;27;20545;-46
2022/01/03 01:58:24;;;;;;;13.05;11.73;;;;;;;;;;5126860;27;20027;-51
2022/01/03 02:01:04;;;;;;;13.32;11.38;;;;;;;;;;5129297;27;20015;-47
2022/01/03 02:03:48;;;;;;;13.00;11.70;;;;;;;;;;5128480;27;20026;-49
2022/01/03 02:06:13;;;;;;;16.58;11.55;;;;;;;;;;5130108;27;20015;-47
2022/01/03 02:08:50;;;;;;;13.43;8.25;;;;;;;;;;5129700;27;20098;-48
2022/01/03 02:11:19;;;;;;;13.27;8.30;;;;;;;;;;5128401;27;20692;-46
2022/01/03 02:13:45;;;;;;;11.48;9.48;;;;;;;;;;5128902;27;20088;-50
2022/01/03 02:16:11;;;;;;;8.60;7.75;;;;;;;;;;5128254;27;20027;-51
2022/01/03 02:18:36;;;;;;;10.35;7.30;;;;;;;;;;5129187;27;20038;-50
2022/01/03 02:21:03;;;;;;;7.00;5.78;;;;;;;;;;5129407;27;20100;-52
2022/01/03 02:23:28;;;;;;;9.38;8.23;;;;;;;;;;5129289;27;20534;-50
2022/01/03 02:25:54;;;;;;;11.13;9.25;;;;;;;;;;5129559;27;20099;-47
2022/01/03 02:28:22;;;;;;;16.55;10.55;;;;;;;;;;5128699;27;20030;-46
2022/01/03 02:30:48;;;;;;;13.60;12.25;;;;;;;;;;5128147;27;20031;-50
2022/01/03 02:33:14;;;;;;;15.15;12.20;;;;;;;;;;5129353;27;20023;-51
2022/01/03 02:35:40;;;;;;;16.17;13.55;;;;;;;;;;5128449;27;20492;-50
2022/01/03 02:38:06;;;;;;;16.63;10.48;;;;;;;;;;5128705;27;20582;-51
2022/01/03 02:40:32;;;;;;;9.85;8.82;;;;;;;;;;5128192;27;20023;-49
2022/01/03 02:42:59;;;;;;;12.88;7.28;;;;;;;;;;5110197;27;20015;-49
2022/01/03 02:45:25;;;;;;;11.13;7.63;;;;;;;;;;5129457;27;20317;-49
2022/01/03 02:47:51;;;;;;;14.70;11.38;;;;;;;;;;5128038;27;20542;-49
2022/01/03 02:50:18;;;;;;;40.45;22.48;;;;;;;;;;5126834;27;20019;-51
2022/01/03 02:52:43;;;;;;;18.40;13.45;;;;;;;;;;5126833;27;20027;-48
2022/01/03 02:55:09;;;;;;;15.95;12.95;;;;;;;;;;5128322;27;20536;-45
2022/01/03 02:57:42;;;;;;;13.85;12.45;;;;;;;;;;5127365;27;20030;-49
2022/01/03 03:00:09;;;;;;;15.70;12.10;;;;;;;;;;5127313;27;20151;-51
2022/01/03 03:02:35;;;;;;;12.40;11.13;;;;;;;;;;5128506;27;20099;-48
2022/01/03 03:05:02;;;;;;;15.98;11.50;;;;;;;;;;5127610;27;20106;-51
2022/01/03 03:07:28;;;;;;;15.35;11.23;;;;;;;;;;5127911;27;20027;-47
2022/01/03 03:09:54;;;;;;;12.13;11.05;;;;;;;;;;5126925;27;20015;-52
2022/01/03 03:12:20;;;;;;;12.82;11.32;;;;;;;;;;5127141;27;20522;-49
2022/01/03 03:14:46;;;;;;;11.85;10.45;;;;;;;;;;5128034;27;20126;-50
2022/01/03 03:17:11;;;;;;;9.48;8.63;;;;;;;;;;5127918;27;20102;-46
2022/01/03 03:19:57;;;;;;;20.15;9.07;;;;;;;;;;5127234;27;20051;-46
2022/01/03 03:22:23;;;;;;;10.80;9.77;;;;;;;;;;5126670;27;20028;-50
2022/01/03 03:24:48;;;;;;;14.25;9.25;;;;;;;;;;5127737;27;20019;-51
2022/01/03 03:27:14;;;;;;;9.95;8.90;;;;;;;;;;5128049;27;20060;-50
2022/01/03 03:29:44;;;;;;;14.68;8.52;;;;;;;;;;5126193;27;20023;-46
2022/01/03 03:32:10;;;;;;;10.98;8.95;;;;;;;;;;5127414;27;20031;-48
2022/01/03 03:34:36;;;;;;;10.63;9.73;;;;;;;;;;5126490;27;20019;-51
2022/01/03 03:37:01;;;;;;;9.82;8.82;;;;;;;;;;5127717;27;20019;-45
2022/01/03 03:39:26;;;;;;;11.75;9.80;;;;;;;;;;5127309;27;20030;-47
2022/01/03 03:41:52;;;;;;;12.32;11.20;;;;;;;;;;5127940;27;20019;-50
2022/01/03 03:44:17;;;;;;;17.75;10.48;;;;;;;;;;5127691;27;20047;-51
2022/01/03 03:46:42;;;;;;;12.25;9.50;;;;;;;;;;5127142;27;20335;-45
2022/01/03 03:49:09;;;;;;;10.43;9.40;;;;;;;;;;5127310;27;20019;-49
2022/01/03 03:51:38;;;;;;;10.40;8.38;;;;;;;;;;5127272;27;20051;-46
2022/01/03 03:54:03;;;;;;;10.05;9.15;;;;;;;;;;5127377;27;20026;-46
2022/01/03 03:56:29;;;;;;;17.35;10.73;;;;;;;;;;5126062;27;20023;-50
2022/01/03 03:58:54;;;;;;;15.77;11.95;;;;;;;;;;5127558;27;20431;-51
2022/01/03 04:01:19;;;;;;;13.95;10.23;;;;;;;;;;5127346;27;20031;-50
2022/01/03 04:03:44;;;;;;;11.85;10.65;;;;;;;;;;5127382;27;20023;-49
2022/01/03 04:06:10;;;;;;;11.68;10.48;;;;;;;;;;5127295;27;20023;-46
2022/01/03 04:08:35;;;;;;;12.32;11.00;;;;;;;;;;5127270;27;20415;-48
2022/01/03 04:11:00;;;;;;;8.88;7.97;;;;;;;;;;5126365;27;20663;-50
2022/01/03 04:13:26;;;;;;;10.88;9.10;;;;;;;;;;5127315;27;20030;-49
2022/01/03 04:15:51;;;;;;;9.18;7.93;;;;;;;;;;5127025;27;20049;-50
2022/01/03 04:18:16;;;;;;;14.63;9.18;;;;;;;;;;5127239;27;20481;-47
2022/01/03 04:20:41;;;;;;;13.50;8.07;;;;;;;;;;5127177;28;20040;-47
2022/01/03 04:23:07;;;;;;;9.52;6.75;;;;;;;;;;5124639;28;20019;-47
2022/01/03 04:25:32;;;;;;;10.48;8.52;;;;;;;;;;5126783;28;20023;-46
2022/01/03 04:27:57;;;;;;;9.95;5.82;;;;;;;;;;5126972;28;20417;-47
2022/01/03 04:30:23;;;;;;;8.02;6.30;;;;;;;;;;5126136;28;20490;-50
2022/01/03 04:32:48;;;;;;;5.63;5.05;;;;;;;;;;5125108;28;20095;-48
2022/01/03 04:35:13;;;;;;;11.05;7.47;;;;;;;;;;5108276;28;20023;-49
2022/01/03 04:37:39;;;;;;;6.70;5.30;;;;;;;;;;5127024;28;20500;-45
2022/01/03 04:40:04;;;;;;;10.40;8.45;;;;;;;;;;5126252;28;20365;-52
2022/01/03 04:42:30;;;;;;;9.60;7.18;;;;;;;;;;5123611;28;20166;-49
2022/01/03 04:44:56;;;;;;;10.57;8.13;;;;;;;;;;5124737;27;20019;-46
2022/01/03 04:47:21;;;;;;;12.23;8.52;;;;;;;;;;5126524;28;20019;-48
2022/01/03 04:49:47;;;;;;;9.73;7.55;;;;;;;;;;5108228;28;20498;-49
2022/01/03 04:52:12;;;;;;;6.28;5.65;;;;;;;;;;5126397;27;20131;-48
2022/01/03 04:54:37;;;;;;;9.13;7.13;;;;;;;;;;5125548;28;20026;-52
2022/01/03 04:57:03;;;;;;;10.98;9.20;;;;;;;;;;5126254;28;20106;-51
2022/01/03 04:59:28;;;;;;;9.40;8.02;;;;;;;;;;5125677;28;20039;-50
2022/01/03 05:01:53;;;;;;;11.27;8.65;;;;;;;;;;5126306;28;20059;-46
2022/01/03 05:04:19;;;;;;;18.17;9.63;;;;;;;;;;5126628;28;20158;-49
2022/01/03 05:06:44;;;;;;;9.35;8.38;;;;;;;;;;5126960;28;20015;-50
2022/01/03 05:09:09;;;;;;;15.75;9.95;;;;;;;;;;5126305;28;20007;-47
2022/01/03 05:11:35;;;;;;;14.02;8.13;;;;;;;;;;5125599;28;20106;-46
2022/01/03 05:14:00;;;;;;;8.68;7.53;;;;;;;;;;5126473;28;20094;-47
2022/01/03 05:16:25;;;;;;;13.48;7.38;;;;;;;;;;5126577;27;20075;-47
2022/01/03 05:18:51;;;;;;;10.63;9.43;;;;;;;;;;5126286;28;20015;-48
2022/01/03 05:21:16;;;;;;;11.48;9.38;;;;;;;;;;5126586;28;20200;-51
2022/01/03 05:23:42;;;;;;;15.23;9.30;;;;;;;;;;5125141;28;20098;-51
2022/01/03 05:26:07;;;;;;;13.63;9.63;;;;;;;;;;5126465;27;20457;-51
2022/01/03 05:28:32;;;;;;;11.93;10.02;;;;;;;;;;5127767;27;20039;-48
2022/01/03 05:30:58;;;;;;;16.33;10.90;;;;;;;;;;5129602;27;20034;-50
2022/01/03 05:33:23;;;;;;;13.07;10.52;;;;;;;;;;5129981;27;20023;-49
2022/01/03 05:35:48;;;;;;;15.75;9.18;;;;;;;;;;5130256;27;20053;-50
2022/01/03 05:38:14;;;;;;;12.05;9.38;;;;;;;;;;5127116;27;20126;-49
2022/01/03 05:40:39;;;;;;;8.98;8.05;;;;;;;;;;5129885;27;20138;-49
2022/01/03 05:43:05;;;;;;;11.38;8.05;;;;;;;;;;5128494;27;20042;-49
2022/01/03 05:45:30;;;;;;;12.77;7.78;;;;;;;;;;5129333;27;20007;-50
2022/01/03 05:47:55;;;;;;;16.17;14.82;;;;;;;;;;5128632;27;20019;-49
2022/01/03 05:50:21;;;;;;;12.65;11.35;;;;;;;;;;5128648;27;20015;-48
2022/01/03 05:52:46;;;;;;;10.05;7.60;;;;;;;;;;5129645;27;20050;-47
2022/01/03 05:55:12;;;;;;;10.05;8.45;;;;;;;;;;5129903;27;20030;-52
2022/01/03 05:57:39;;;;;;;7.38;6.43;;;;;;;;;;5129640;27;20031;-50
2022/01/03 06:00:06;;;;;;;8.90;7.50;;;;;;;;;;5128842;27;20155;-49
2022/01/03 06:02:36;;;;;;;16.70;8.93;;;;;;;;;;5129350;27;20027;-47
2022/01/03 06:05:04;;;;;;;11.77;10.57;;;;;;;;;;5129808;27;20094;-50
2022/01/03 06:07:29;;;;;;;9.27;7.90;;;;;;;;;;5126682;27;20038;-50
2022/01/03 06:09:55;;;;;;;11.48;6.22;;;;;;;;;;5129305;27;20099;-52
2022/01/03 06:12:20;;;;;;;9.45;7.32;;;;;;;;;;5129528;27;20031;-50
2022/01/03 06:14:46;;;;;;;8.05;6.57;;;;;;;;;;5129390;27;20740;-47
2022/01/03 06:17:12;;;;;;;10.95;6.55;;;;;;;;;;5129206;27;20051;-49
2022/01/03 06:19:38;;;;;;;8.05;6.63;;;;;;;;;;5129062;27;20578;-48
2022/01/03 06:22:04;;;;;;;9.85;8.13;;;;;;;;;;5129202;27;20049;-47
2022/01/03 06:24:29;;;;;;;9.57;7.32;;;;;;;;;;5128603;27;20015;-50
2022/01/03 06:26:55;;;;;;;9.30;8.50;;;;;;;;;;5128539;27;20049;-49
2022/01/03 06:29:20;;;;;;;12.23;6.95;;;;;;;;;;5128271;27;20340;-50
2022/01/03 06:31:47;;;;;;;6.90;6.05;;;;;;;;;;5126609;27;20023;-47
2022/01/03 06:34:12;;;;;;;7.38;6.55;;;;;;;;;;5129754;27;20023;-49
2022/01/03 06:36:37;;;;;;;9.40;7.75;;;;;;;;;;5129813;27;20118;-51
2022/01/03 06:39:04;;;;;;;10.77;9.13;;;;;;;;;;5128859;27;20019;-48
2022/01/03 06:41:30;;;;;;;14.07;8.52;;;;;;;;;;5128986;27;20474;-50
2022/01/03 06:43:55;;;;;;;11.88;9.07;;;;;;;;;;5128721;27;20037;-50
2022/01/03 06:46:21;;;;;;;16.63;10.90;;;;;;;;;;5127067;27;20019;-47
2022/01/03 06:48:46;;;;;;;14.27;11.18;;;;;;;;;;5128465;27;20027;-51
2022/01/03 06:51:15;;;;;;;11.48;9.38;;;;;;;;;;5128026;27;20563;-50
2022/01/03 06:53:40;;;;;;;9.18;7.60;;;;;;;;;;5128506;27;20107;-52
2022/01/03 06:56:06;;;;;;;10.98;8.70;;;;;;;;;;5128603;27;20030;-50
2022/01/03 06:58:34;;;;;;;6.93;5.70;;;;;;;;;;5127117;27;20110;-49
2022/01/03 07:00:59;;;;;;;7.78;5.60;;;;;;;;;;5126957;27;20019;-47
2022/01/03 07:03:25;;;;;;;7.20;4.88;;;;;;;;;;5128438;27;20019;-51
2022/01/03 07:05:50;;;;;;;8.35;4.55;;;;;;;;;;5127851;27;20015;-50
2022/01/03 07:08:16;;;;;;;7.65;4.80;;;;;;;;;;5127740;27;20022;-48
2022/01/03 07:10:41;;;;;;;7.22;4.63;;;;;;;;;;5128282;27;20034;-49
2022/01/03 07:13:06;;;;;;;7.05;6.32;;;;;;;;;;5127378;27;20023;-49
2022/01/03 07:20:59;;;;;;;14.13;7.65;;;;;;;;;;5125734;27;20111;-50
2022/01/03 07:23:25;;;;;;;11.25;8.98;;;;;;;;;;5128319;27;20022;-46
2022/01/03 07:25:50;;;;;;;8.73;6.75;;;;;;;;;;5128725;27;20007;-47
2022/01/03 07:28:16;;;;;;;9.93;7.03;;;;;;;;;;5128370;27;20026;-48
2022/01/03 07:30:42;;;;;;;11.38;7.57;;;;;;;;;;5127200;27;20034;-50
2022/01/03 07:33:07;;;;;;;8.88;7.03;;;;;;;;;;5124999;27;20023;-50
2022/01/03 07:35:33;;;;;;;15.85;8.27;;;;;;;;;;5124790;27;20446;-48
2022/01/03 07:37:59;;;;;;;9.00;7.53;;;;;;;;;;5127178;27;20038;-47
2022/01/03 07:40:25;;;;;;;12.60;7.85;;;;;;;;;;5116161;27;20031;-47
2022/01/03 07:42:50;;;;;;;10.98;8.73;;;;;;;;;;5124160;27;20103;-57
2022/01/03 07:45:15;;;;;;;15.75;8.52;;;;;;;;;;5124685;27;20138;-57
2022/01/03 07:47:40;;;;;;;14.75;8.68;;;;;;;;;;5123178;27;20094;-58
2022/01/03 07:50:07;;;;;;;10.50;8.18;;;;;;;;;;5124694;27;20078;-57
2022/01/03 07:52:32;;;;;;;10.10;8.32;;;;;;;;;;5124596;27;20019;-58
2022/01/03 07:54:57;;;;;;;9.93;8.35;;;;;;;;;;5124356;27;20106;-58
2022/01/03 07:57:23;;;;;;;11.27;10.07;;;;;;;;;;5124368;27;20027;-57
2022/01/03 07:59:48;;;;;;;18.60;14.10;;;;;;;;;;5124764;27;20477;-58
2022/01/03 08:02:13;;;;;;;18.13;16.23;;;;;;;;;;5123265;27;20034;-57
2022/01/03 08:04:39;;;;;;;13.65;12.40;;;;;;;;;;5124533;27;20592;-58
2022/01/03 08:07:04;;;;;;;25.77;15.25;;;;;;;;;;5126465;27;20029;-56
2022/01/03 08:09:30;;;;;;;18.35;16.40;;;;;;;;;;5127483;27;20037;-57
2022/01/03 08:11:55;;;;;;;14.25;12.63;;;;;;;;;;5106747;27;20079;-58
2022/01/03 08:14:20;;;;;;;8.07;7.28;;;;;;;;;;5126466;27;20546;-57
2022/01/03 08:16:46;;;;;;;9.15;6.60;;;;;;;;;;5107638;28;20058;-57
2022/01/03 08:19:14;;;;;;;12.73;10.68;;;;;;;;;;5124980;27;20450;-57
2022/01/03 08:21:39;;;;;;;13.65;8.88;;;;;;;;;;5126670;27;20034;-57
2022/01/03 08:24:05;;;;;;;11.85;8.45;;;;;;;;;;5126445;28;20749;-58
2022/01/03 08:26:33;;;;;;;13.23;11.02;;;;;;;;;;5126452;28;20030;-58
2022/01/03 08:28:59;;;;;;;16.50;12.90;;;;;;;;;;5122839;28;20011;-57
2022/01/03 08:31:25;;;;;;;15.77;12.90;;;;;;;;;;5126617;28;20038;-57
2022/01/03 08:33:51;;;;;;;22.27;18.98;;;;;;;;;;5125018;28;20031;-58
2022/01/03 08:36:16;;;;;;;16.70;14.20;;;;;;;;;;5125774;28;20031;-58
2022/01/03 08:38:42;;;;;;;10.73;9.63;;;;;;;;;;5126041;28;20386;-58
2022/01/03 08:41:07;;;;;;;11.80;8.25;;;;;;;;;;5126740;28;20023;-57
2022/01/03 08:43:33;;;;;;;7.75;6.95;;;;;;;;;;5126854;28;20386;-57
2022/01/03 08:45:58;;;;;;;10.27;8.65;;;;;;;;;;5126642;28;20034;-57
2022/01/03 08:48:24;;;;;;;7.28;4.40;;;;;;;;;;5125689;28;20026;-60
2022/01/03 08:50:49;;;;;;;10.77;8.13;;;;;;;;;;5126725;28;20409;-51
2022/01/03 08:53:14;;;;;;;17.88;9.27;;;;;;;;;;5123021;28;20050;-54
2022/01/03 08:55:40;;;;;;;19.27;12.18;;;;;;;;;;5122910;28;20119;-55
2022/01/03 08:58:05;;;;;;;17.52;14.20;;;;;;;;;;5124634;28;20022;-56
2022/01/03 09:00:31;;;;;;;22.85;14.75;;;;;;;;;;5125276;27;20066;-55
2022/01/03 09:02:56;;;;;;;22.33;17.38;;;;;;;;;;5128794;27;20026;-53
2022/01/03 09:05:24;;;;;;;17.77;14.38;;;;;;;;;;5128667;27;20030;-54
2022/01/03 09:07:51;;;;;;;27.02;23.98;;;;;;;;;;5129560;27;20049;-54
2022/01/03 09:10:17;;;;;;;47.35;42.28;;;;;;;;;;5125635;27;20486;-49
2022/01/03 09:12:43;;;;;;;36.38;31.60;;;;;;;;;;5128439;27;20094;-52
2022/01/03 09:15:09;;;;;;;28.08;24.27;;;;;;;;;;5128713;27;20042;-57
2022/01/03 09:17:34;;;;;;;22.25;20.05;;;;;;;;;;5129908;27;20015;-57
2022/01/03 09:19:59;;;;;;;30.80;18.00;;;;;;;;;;5129881;27;20053;-58
2022/01/03 09:22:31;;;;;;;21.33;17.83;;;;;;;;;;5126649;27;20030;-56
2022/01/03 09:30:09;;;;;;;22.15;20.00;;;;;;;;;;5130678;27;20053;-55
2022/01/03 09:32:34;;;;;;;15.15;13.60;;;;;;;;;;5130557;27;20474;-55
2022/01/03 09:35:00;;;;;;;16.73;10.95;;;;;;;;;;5130121;27;20493;-53
2022/01/03 09:37:25;;;;;;;13.05;11.55;;;;;;;;;;5129165;27;20033;-52
2022/01/03 09:39:52;;;;;;;15.50;12.18;;;;;;;;;;5127481;27;20027;-56
2022/01/03 09:42:21;;;;;;;12.15;9.13;;;;;;;;;;5129665;27;20023;-57
2022/01/03 09:44:48;;;;;;;10.23;9.23;;;;;;;;;;5129289;27;20102;-56
2022/01/03 09:47:15;;;;;;;15.13;10.27;;;;;;;;;;5129921;27;20034;-57
2022/01/03 09:49:41;;;;;;;10.93;9.82;;;;;;;;;;5127813;27;20023;-56
2022/01/03 09:52:07;;;;;;;12.27;9.40;;;;;;;;;;5129360;27;20130;-58
2022/01/03 09:54:32;;;;;;;29.05;11.38;;;;;;;;;;5127699;27;20011;-58
2022/01/03 09:57:02;;;;;;;16.05;12.55;;;;;;;;;;5129805;27;20031;-58
2022/01/03 09:59:28;;;;;;;24.58;14.23;;;;;;;;;;5127465;27;20027;-58
2022/01/03 10:01:53;;;;;;;18.05;15.68;;;;;;;;;;5129132;27;20363;-58
2022/01/03 10:04:19;;;;;;;14.98;13.57;;;;;;;;;;5129401;27;20047;-59
2022/01/03 10:06:44;;;;;;;12.82;11.63;;;;;;;;;;5129456;27;20016;-59
2022/01/03 10:09:10;;;;;;;11.75;10.55;;;;;;;;;;5128791;27;20415;-59
2022/01/03 10:11:35;;;;;;;12.75;11.48;;;;;;;;;;5129070;27;20019;-59
2022/01/03 10:14:01;;;;;;;21.88;11.13;;;;;;;;;;5128056;27;20023;-60
2022/01/03 10:16:28;;;;;;;18.17;12.85;;;;;;;;;;5128300;27;20012;-60
2022/01/03 10:18:53;;;;;;;13.35;12.02;;;;;;;;;;5128365;27;20075;-56
2022/01/03 10:21:34;;;;;;;18.05;12.88;;;;;;;;;;5128731;27;20384;-56
2022/01/03 10:23:59;;;;;;;19.52;15.50;;;;;;;;;;5128468;27;20027;-56
2022/01/03 10:26:24;;;;;;;22.13;18.15;;;;;;;;;;5129470;27;20019;-57
2022/01/03 10:28:51;;;;;;;21.80;18.35;;;;;;;;;;5128389;27;20062;-57
2022/01/03 10:31:18;;;;;;;19.50;16.58;;;;;;;;;;5129484;27;20462;-57
2022/01/03 10:33:43;;;;;;;23.00;20.20;;;;;;;;;;5127431;27;20038;-57
2022/01/03 10:36:24;;;;;;;27.20;19.55;;;;;;;;;;5128658;27;20563;-55
2022/01/03 10:38:50;;;;;;;19.63;17.55;;;;;;;;;;5126729;27;20097;-57
2022/01/03 10:41:17;;;;;;;26.90;19.70;;;;;;;;;;5127864;27;20035;-57
2022/01/03 10:43:43;;;;;;;27.90;21.27;;;;;;;;;;5126225;27;20022;-57
2022/01/03 10:46:17;;;;;;;20.92;17.77;;;;;;;;;;5128816;27;20021;-57
2022/01/03 10:48:42;;;;;;;22.60;20.17;;;;;;;;;;5126830;27;20022;-57
2022/01/03 10:51:08;;;;;;;17.50;15.77;;;;;;;;;;5126872;27;20031;-57
2022/01/03 10:53:38;;;;;;;16.23;14.15;;;;;;;;;;5128674;27;20019;-57
2022/01/03 10:56:28;;;;;;;18.13;14.83;;;;;;;;;;5127920;27;20156;-57
2022/01/03 10:58:54;;;;;;;17.73;12.05;;;;;;;;;;5125513;27;20537;-58
2022/01/03 11:01:23;;;;;;;15.98;13.68;;;;;;;;;;5127045;27;20026;-57
2022/01/03 11:03:49;;;;;;;16.15;14.63;;;;;;;;;;5126300;27;20011;-57
2022/01/03 11:11:37;;;;;;;10.65;9.55;;;;;;;;;;5089591;27;20030;-58
2022/01/03 11:14:02;;;;;;;17.67;13.43;;;;;;;;;;5125314;27;20045;-58
2022/01/03 11:16:32;;;;;;;10.45;9.48;;;;;;;;;;5128165;27;20728;-58
2022/01/03 11:18:57;;;;;;;12.70;10.45;;;;;;;;;;5125759;27;20015;-58
2022/01/03 11:21:24;;;;;;;16.60;10.15;;;;;;;;;;5127783;27;20022;-57
2022/01/03 11:24:01;;;;;;;8.50;7.63;;;;;;;;;;5128302;27;20059;-57
2022/01/03 11:26:28;;;;;;;8.82;8.00;;;;;;;;;;5124437;27;20007;-61
2022/01/03 11:28:54;;;;;;;9.50;8.40;;;;;;;;;;5125781;27;20112;-61
2022/01/03 11:31:21;;;;;;;9.70;7.60;;;;;;;;;;5127326;27;20466;-61
2022/01/03 11:33:47;;;;;;;9.35;8.27;;;;;;;;;;5125014;27;20074;-59
2022/01/03 11:36:12;;;;;;;10.38;8.48;;;;;;;;;;5125472;27;20053;-62
2022/01/03 11:38:38;;;;;;;7.63;6.80;;;;;;;;;;5126995;27;20086;-61
2022/01/03 11:41:05;;;;;;;9.75;8.75;;;;;;;;;;5125401;27;20022;-60
2022/01/03 11:43:32;;;;;;;9.63;8.75;;;;;;;;;;5127193;27;20023;-62
2022/01/03 11:45:58;;;;;;;21.75;8.77;;;;;;;;;;5125736;27;20043;-62
2022/01/03 11:48:26;;;;;;;9.43;8.48;;;;;;;;;;5126839;27;20012;-62
2022/01/03 11:50:52;;;;;;;8.40;6.43;;;;;;;;;;5126284;27;20110;-62
2022/01/03 11:53:23;;;;;;;9.07;8.00;;;;;;;;;;5125377;27;20019;-62
2022/01/03 11:55:55;;;;;;;10.40;8.93;;;;;;;;;;5127051;27;20034;-62
2022/01/03 11:58:49;;;;;;;8.52;7.72;;;;;;;;;;5102251;27;20031;-62
2022/01/03 12:03:58;;;;;;;9.80;6.90;;;;;;;;;;5126544;27;20019;-67
2022/01/03 12:06:32;;;;;;;10.90;9.18;;;;;;;;;;5127503;27;20030;-66
2022/01/03 12:09:08;;;;;;;10.75;9.90;;;;;;;;;;5125799;27;20015;-67
2022/01/03 12:11:33;;;;;;;9.38;8.45;;;;;;;;;;5123749;27;20019;-63
2022/01/03 12:14:10;;;;;;;9.68;8.65;;;;;;;;;;5123543;27;20031;-60
2022/01/03 12:16:49;;;;;;;9.75;8.80;;;;;;;;;;5126249;27;20076;-62
2022/01/03 12:19:24;;;;;;;16.35;11.30;;;;;;;;;;5126923;27;20043;-63
2022/01/03 12:21:53;;;;;;;14.38;11.23;;;;;;;;;;5125853;27;20110;-63
2022/01/03 12:24:27;;;;;;;11.55;10.45;;;;;;;;;;5126227;27;20034;-62
2022/01/03 12:27:11;;;;;;;13.40;10.40;;;;;;;;;;5126733;28;20025;-62
2022/01/03 12:30:03;;;;;;;14.20;7.03;;;;;;;;;;5126571;28;20098;-63
2022/01/03 12:32:28;;;;;;;;;;;;;;;;;;5122930;28;20118;-61
2022/01/03 12:35:12;;;;;;;9.90;8.93;;;;;;;;;;5127309;28;20018;-62
2022/01/03 12:37:39;;;;;;;10.48;8.65;;;;;;;;;;5128101;27;20027;-62
2022/01/03 12:40:04;;;;;;;10.18;6.70;;;;;;;;;;5131410;27;20585;-62
2022/01/03 12:42:45;;;;;;;14.57;12.95;;;;;;;;;;5129163;27;20098;-62
2022/01/03 12:45:10;;;;;;;9.10;8.18;;;;;;;;;;5131365;27;20019;-63
2022/01/03 12:47:39;;;;;;;7.75;6.95;;;;;;;;;;5131919;27;20080;-62
2022/01/03 12:50:21;;;;;;;7.32;6.63;;;;;;;;;;5129415;27;20015;-62
2022/01/03 12:52:46;;;;;;;10.52;7.40;;;;;;;;;;5129990;27;20506;-62
2022/01/03 12:55:31;;;;;;;7.65;6.93;;;;;;;;;;5131473;27;20076;-64
2022/01/03 12:57:57;;;;;;;8.95;8.07;;;;;;;;;;5126743;27;20015;-59
2022/01/03 13:00:38;;;;;;;9.45;6.13;;;;;;;;;;5130794;27;20023;-60
2022/01/03 13:03:03;;;;;;;;;;;;;;;;;;5131058;27;20034;-60
2022/01/03 13:05:28;;;;;;;11.10;7.97;;;;;;;;;;5129995;27;19911;-60
2022/01/03 13:07:54;;;;;;;7.45;4.82;;;;;;;;;;5130444;27;20450;-58
2022/01/03 13:10:20;;;;;;;8.95;7.45;;;;;;;;;;5130781;27;20493;-58
2022/01/03 13:12:48;;;;;;;13.65;10.77;;;;;;;;;;5130709;27;20038;-58
2022/01/03 13:15:20;;;;;;;13.70;10.90;;;;;;;;;;5130192;27;20028;-58
2022/01/03 13:17:45;;;;;;;6.55;5.93;;;;;;;;;;5128070;27;20027;-57
2022/01/03 13:20:10;;;;;;;6.60;5.88;;;;;;;;;;5128981;27;20051;-57
2022/01/03 13:22:36;;;;;;;17.60;9.50;;;;;;;;;;5130102;27;20437;-56
2022/01/03 13:25:02;;;;;;;8.57;7.07;;;;;;;;;;5130675;27;20047;-57
2022/01/03 13:27:27;;;;;;;7.18;5.57;;;;;;;;;;5129618;27;20022;-57
2022/01/03 13:30:03;;;;;;;10.05;7.25;;;;;;;;;;5130745;27;20438;-56
2022/01/03 13:32:30;;;;;;;7.53;6.75;;;;;;;;;;5129133;27;20131;-57
2022/01/03 13:34:56;;;;;;;9.93;6.95;;;;;;;;;;5129057;27;20031;-57
2022/01/03 13:37:23;;;;;;;7.90;5.75;;;;;;;;;;5130105;27;20470;-58
2022/01/03 13:39:49;;;;;;;10.93;8.00;;;;;;;;;;5128594;27;20031;-57
2022/01/03 13:42:19;;;;;;;11.02;9.90;;;;;;;;;;5128293;27;20027;-58
2022/01/03 13:50:03;;;;;;;4.82;4.38;;;;;;;;;;5129439;27;20390;-58
2022/01/03 13:52:32;;;;;;;11.75;7.68;;;;;;;;;;5129150;27;20015;-57
2022/01/03 13:55:02;;;;;;;5.82;4.93;;;;;;;;;;5127818;27;20080;-58
2022/01/03 13:57:28;;;;;;;7.20;6.38;;;;;;;;;;5127106;27;20580;-58
2022/01/03 13:59:54;;;;;;;16.38;5.25;;;;;;;;;;5128428;27;20029;-57
2022/01/03 14:02:19;;;;;;;4.28;2.97;;;;;;;;;;5129304;27;20471;-59
2022/01/03 14:04:45;;;;;;;6.88;5.93;;;;;;;;;;5128510;27;20067;-59
2022/01/03 14:07:11;;;;;;;8.45;7.47;;;;;;;;;;5128607;27;20126;-58
2022/01/03 14:09:45;;;;;;;6.10;4.80;;;;;;;;;;5127009;27;20011;-58
2022/01/03 14:12:15;;;;;;;12.45;7.03;;;;;;;;;;5127241;27;20064;-58
2022/01/03 14:14:44;;;;;;;15.95;8.05;;;;;;;;;;5128218;27;20015;-56
2022/01/03 14:17:09;;;;;;;12.13;7.68;;;;;;;;;;5128664;27;20279;-57
2022/01/03 14:19:36;;;;;;;9.57;6.70;;;;;;;;;;5126510;27;20536;-57
2022/01/03 14:22:08;;;;;;;10.07;7.15;;;;;;;;;;5127760;27;20080;-58
2022/01/03 14:24:33;;;;;;;11.10;5.82;;;;;;;;;;5126955;27;20034;-59
2022/01/03 14:26:59;;;;;;;7.38;6.68;;;;;;;;;;5128298;27;20019;-58
2022/01/03 14:29:35;;;;;;;10.52;6.65;;;;;;;;;;5128153;27;20011;-57
2022/01/03 14:32:10;;;;;;;10.15;9.00;;;;;;;;;;5127966;27;20485;-57
2022/01/03 14:34:36;;;;;;;11.32;9.77;;;;;;;;;;5128294;27;20478;-57
2022/01/03 14:37:02;;;;;;;13.65;7.05;;;;;;;;;;5128055;27;20023;-56
2022/01/03 14:39:28;;;;;;;6.13;5.53;;;;;;;;;;5128024;27;20012;-54
2022/01/03 14:41:57;;;;;;;7.28;6.43;;;;;;;;;;5128090;27;20060;-54
2022/01/03 14:44:24;;;;;;;8.02;4.78;;;;;;;;;;5127140;27;20045;-54
2022/01/03 14:46:58;;;;;;;7.95;6.97;;;;;;;;;;5127910;27;20237;-55
2022/01/03 14:49:23;;;;;;;7.75;6.60;;;;;;;;;;5125230;27;20019;-56
2022/01/03 14:51:49;;;;;;;8.63;7.72;;;;;;;;;;5125493;27;20760;-55
2022/01/03 14:54:20;;;;;;;11.00;7.78;;;;;;;;;;5129570;27;20054;-56